createdAt,value
2023-05-21T00:01:26.911Z,4.90
2023-05-21T00:03:54.257Z,4.57
2023-05-21T00:06:23.300Z,4.82
2023-05-21T00:08:50.671Z,4.63
2023-05-21T00:11:18.152Z,4.70
2023-05-21T00:13:45.348Z,4.88
2023-05-21T00:16:12.716Z,4.50
2023-05-21T00:18:39.939Z,5.45
2023-05-21T00:21:07.705Z,5.90
2023-05-21T00:23:36.630Z,5.80
2023-05-21T00:26:04.198Z,5.43
2023-05-21T00:28:31.257Z,5.40
2023-05-21T00:30:58.629Z,5.35
2023-05-21T00:33:29.313Z,5.47
2023-05-21T00:35:57.398Z,5.45
2023-05-21T00:38:27.877Z,5.75
2023-05-21T00:40:55.261Z,5.75
2023-05-21T00:43:26.172Z,5.47
2023-05-21T00:45:53.923Z,5.25
2023-05-21T00:48:21.257Z,5.15
2023-05-21T00:50:49.526Z,5.10
2023-05-21T00:53:19.325Z,5.78
2023-05-21T00:55:48.203Z,5.53
2023-05-21T00:58:17.831Z,6.10
2023-05-21T01:00:45.884Z,6.25
2023-05-21T01:03:13.840Z,5.70
2023-05-21T01:05:45.117Z,6.43
2023-05-21T01:08:12.918Z,6.20
2023-05-21T01:10:40.460Z,6.68
2023-05-21T01:13:08.309Z,6.88
2023-05-21T01:15:38.014Z,7.80
2023-05-21T01:18:06.177Z,7.05
2023-05-21T01:20:33.797Z,6.35
2023-05-21T01:23:02.068Z,7.38
2023-05-21T01:25:30.298Z,7.18
2023-05-21T01:27:57.974Z,6.68
2023-05-21T01:30:25.902Z,7.20
2023-05-21T01:32:53.069Z,7.88
2023-05-21T01:35:31.167Z,7.07
2023-05-21T01:38:26.392Z,7.70
2023-05-21T01:40:55.731Z,8.07
2023-05-21T01:43:23.624Z,7.38
2023-05-21T01:45:55.364Z,7.13
2023-05-21T01:48:25.006Z,8.10
2023-05-21T01:50:55.270Z,8.50
2023-05-21T01:53:22.669Z,7.90
2023-05-21T01:55:50.219Z,7.57
2023-05-21T01:58:18.497Z,7.05
2023-05-21T02:00:46.643Z,8.18
2023-05-21T02:03:17.699Z,8.80
2023-05-21T02:05:45.376Z,8.27
2023-05-21T02:08:12.942Z,8.35
2023-05-21T02:10:40.670Z,7.95
2023-05-21T02:13:07.803Z,7.53
2023-05-21T02:15:35.473Z,7.57
2023-05-21T02:18:03.991Z,7.55
2023-05-21T02:20:31.954Z,7.57
2023-05-21T02:22:58.992Z,7.95
2023-05-21T02:25:26.368Z,7.35
2023-05-21T02:27:54.098Z,7.50
2023-05-21T02:30:21.663Z,7.15
2023-05-21T02:32:49.975Z,7.05
2023-05-21T02:35:17.457Z,6.97
2023-05-21T02:37:44.686Z,7.90
2023-05-21T02:40:12.919Z,7.60
2023-05-21T02:42:41.469Z,7.20
2023-05-21T02:45:12.919Z,7.72
2023-05-21T02:47:42.301Z,8.45
2023-05-21T02:50:09.906Z,7.82
2023-05-21T02:52:44.194Z,7.75
2023-05-21T02:55:11.790Z,7.97
2023-05-21T02:57:38.830Z,7.78
2023-05-21T03:00:08.290Z,7.90
2023-05-21T03:02:36.243Z,8.82
2023-05-21T03:05:03.923Z,7.80
2023-05-21T03:07:31.707Z,8.00
2023-05-21T03:09:59.408Z,8.90
2023-05-21T03:12:26.484Z,8.65
2023-05-21T03:14:54.132Z,8.20
2023-05-21T03:17:22.308Z,7.95
2023-05-21T03:19:49.809Z,7.70
2023-05-21T03:22:17.316Z,9.90
2023-05-21T03:24:45.372Z,10.05
2023-05-21T03:27:14.157Z,9.40
2023-05-21T03:29:43.251Z,8.85
2023-05-21T03:32:11.502Z,9.38
2023-05-21T03:34:38.977Z,7.60
2023-05-21T03:37:06.592Z,8.35
2023-05-21T03:39:34.838Z,7.30
2023-05-21T03:42:02.308Z,7.63
2023-05-21T03:44:52.156Z,7.93
2023-05-21T03:47:37.786Z,8.25
2023-05-21T03:50:09.448Z,9.23
2023-05-21T03:52:37.183Z,10.50
2023-05-21T03:55:06.157Z,10.48
2023-05-21T03:57:33.389Z,11.88
2023-05-21T04:00:00.849Z,10.07
2023-05-21T04:02:28.178Z,9.40
2023-05-21T04:04:56.034Z,8.82
2023-05-21T04:07:24.445Z,8.13
2023-05-21T04:09:51.851Z,7.15
2023-05-21T04:12:20.341Z,6.43
2023-05-21T04:14:48.252Z,5.82
2023-05-21T04:17:15.339Z,5.10
2023-05-21T04:19:42.759Z,5.78
2023-05-21T04:22:12.115Z,5.15
2023-05-21T04:24:39.875Z,4.47
2023-05-21T04:27:14.205Z,4.32
2023-05-21T04:29:42.789Z,4.57
2023-05-21T04:32:10.082Z,4.57
2023-05-21T04:34:37.897Z,4.45
2023-05-21T04:37:05.115Z,3.80
2023-05-21T04:39:32.659Z,4.72
2023-05-21T04:41:59.795Z,3.88
2023-05-21T04:44:27.154Z,3.63
2023-05-21T04:46:55.146Z,3.67
2023-05-21T04:49:22.711Z,4.25
2023-05-21T04:51:49.878Z,3.78
2023-05-21T04:54:17.324Z,4.13
2023-05-21T04:56:44.768Z,3.78
2023-05-21T04:59:12.187Z,4.00
2023-05-21T05:01:39.291Z,4.18
2023-05-21T05:04:07.002Z,3.92
2023-05-21T05:06:34.163Z,4.00
2023-05-21T05:09:01.560Z,3.95
2023-05-21T05:11:28.742Z,4.13
2023-05-21T05:13:56.926Z,4.25
2023-05-21T05:16:27.971Z,3.88
2023-05-21T05:18:57.543Z,4.13
2023-05-21T05:21:25.041Z,3.67
2023-05-21T05:23:52.470Z,3.95
2023-05-21T05:26:23.560Z,4.15
2023-05-21T05:28:50.993Z,4.50
2023-05-21T05:31:18.922Z,4.20
2023-05-21T05:33:46.969Z,4.18
2023-05-21T05:36:14.414Z,3.85
2023-05-21T05:38:41.755Z,4.32
2023-05-21T05:41:09.057Z,3.88
2023-05-21T05:43:36.778Z,4.28
2023-05-21T05:46:04.012Z,3.65
2023-05-21T05:48:31.462Z,3.80
2023-05-21T05:50:59.262Z,4.20
2023-05-21T05:53:27.207Z,3.95
2023-05-21T05:55:54.634Z,3.67
2023-05-21T05:58:22.090Z,4.10
2023-05-21T06:01:13.628Z,3.83
2023-05-21T06:03:41.642Z,3.83
2023-05-21T06:06:14.976Z,4.15
2023-05-21T06:08:42.851Z,3.60
2023-05-21T06:11:10.958Z,4.07
2023-05-21T06:13:38.750Z,3.90
2023-05-21T06:16:10.037Z,3.53
2023-05-21T06:18:38.459Z,3.65
2023-05-21T06:21:05.670Z,3.47
2023-05-21T06:23:33.183Z,3.60
2023-05-21T06:26:00.814Z,3.35
2023-05-21T06:28:28.318Z,3.72
2023-05-21T06:30:58.313Z,3.70
2023-05-21T06:33:27.695Z,3.60
2023-05-21T06:35:55.943Z,3.38
2023-05-21T06:38:24.261Z,3.88
2023-05-21T06:40:51.288Z,3.50
2023-05-21T06:43:34.878Z,4.22
2023-05-21T06:46:20.434Z,3.55
2023-05-21T06:48:47.961Z,3.22
2023-05-21T06:51:15.298Z,4.18
2023-05-21T06:53:43.189Z,4.72
2023-05-21T06:56:10.497Z,3.78
2023-05-21T06:58:41.719Z,3.85
2023-05-21T07:01:08.914Z,3.63
2023-05-21T07:03:36.787Z,5.05
2023-05-21T07:06:04.092Z,3.45
2023-05-21T07:08:31.652Z,3.58
2023-05-21T07:11:00.102Z,3.50
2023-05-21T07:13:27.799Z,3.38
2023-05-21T07:15:55.692Z,3.20
2023-05-21T07:18:23.047Z,3.30
2023-05-21T07:20:50.542Z,3.63
2023-05-21T07:23:17.976Z,3.42
2023-05-21T07:25:46.349Z,3.28
2023-05-21T07:28:14.804Z,3.60
2023-05-21T07:30:42.037Z,3.17
2023-05-21T07:33:14.362Z,3.00
2023-05-21T07:35:41.620Z,3.58
2023-05-21T07:38:09.124Z,6.40
2023-05-21T07:40:36.397Z,4.70
2023-05-21T07:43:04.580Z,3.28
2023-05-21T07:45:33.890Z,3.80
2023-05-21T07:48:01.503Z,4.80
2023-05-21T07:50:31.868Z,3.25
2023-05-21T07:52:59.347Z,3.05
2023-05-21T07:55:26.457Z,3.45
2023-05-21T07:57:55.200Z,3.05
2023-05-21T08:00:29.697Z,3.58
2023-05-21T08:02:58.441Z,3.50
2023-05-21T08:05:26.532Z,3.28
2023-05-21T08:07:53.992Z,3.40
2023-05-21T08:10:21.859Z,3.75
2023-05-21T08:12:51.167Z,2.92
2023-05-21T08:15:19.022Z,3.00
2023-05-21T08:17:46.742Z,3.42
2023-05-21T08:20:15.210Z,3.50
2023-05-21T08:22:44.636Z,4.13
2023-05-21T08:25:12.239Z,3.47
2023-05-21T08:27:39.833Z,3.13
2023-05-21T08:30:07.932Z,2.70
2023-05-21T08:32:36.259Z,3.40
2023-05-21T08:35:04.033Z,2.90
2023-05-21T08:38:03.891Z,3.10
2023-05-21T08:40:41.574Z,2.88
2023-05-21T08:43:13.904Z,3.75
2023-05-21T08:45:57.298Z,2.60
2023-05-21T08:48:28.161Z,2.97
2023-05-21T08:50:55.693Z,2.75
2023-05-21T08:53:33.495Z,2.75
2023-05-21T08:56:01.859Z,2.78
2023-05-21T08:58:45.263Z,3.05
2023-05-21T09:01:13.194Z,2.63
2023-05-21T09:03:46.226Z,3.75
2023-05-21T09:06:16.776Z,4.22
2023-05-21T09:08:49.919Z,3.30
2023-05-21T09:11:23.278Z,2.97
2023-05-21T09:13:57.918Z,2.80
2023-05-21T09:19:03.021Z,3.13
2023-05-21T09:21:34.133Z,2.67
2023-05-21T09:24:11.183Z,2.70
2023-05-21T09:26:42.739Z,2.33
2023-05-21T09:29:10.559Z,2.85
2023-05-21T09:31:46.564Z,2.75
2023-05-21T09:34:14.999Z,3.00
2023-05-21T09:36:47.158Z,2.50
2023-05-21T09:39:29.894Z,2.33
2023-05-21T09:42:00.478Z,2.53
2023-05-21T09:44:28.083Z,2.72
2023-05-21T09:46:59.573Z,2.42
2023-05-21T09:49:28.096Z,2.58
2023-05-21T09:51:59.974Z,2.70
2023-05-21T09:54:33.339Z,2.40
2023-05-21T09:57:02.654Z,2.88
2023-05-21T09:59:40.052Z,2.65
2023-05-21T10:02:37.970Z,2.72
2023-05-21T10:05:10.390Z,2.67
2023-05-21T10:07:38.394Z,2.58
2023-05-21T10:10:09.234Z,2.42
2023-05-21T10:12:36.860Z,2.38
2023-05-21T10:15:08.215Z,3.00
2023-05-21T10:17:36.243Z,2.58
2023-05-21T10:20:05.238Z,2.30
2023-05-21T10:22:33.501Z,2.38
2023-05-21T10:25:03.656Z,2.80
2023-05-21T10:27:32.793Z,2.65
2023-05-21T10:30:00.697Z,2.80
2023-05-21T10:32:28.244Z,3.00
2023-05-21T10:34:58.591Z,2.58
2023-05-21T10:37:27.736Z,2.75
2023-05-21T10:39:56.294Z,2.40
2023-05-21T10:42:32.393Z,2.80
2023-05-21T10:45:32.670Z,2.65
2023-05-21T10:48:26.185Z,2.55
2023-05-21T10:51:50.733Z,2.60
2023-05-21T10:54:42.322Z,3.38
2023-05-21T10:57:45.918Z,2.50
2023-05-21T11:00:16.847Z,2.65
2023-05-21T11:02:45.897Z,2.88
2023-05-21T11:05:13.214Z,2.90
2023-05-21T11:07:56.842Z,2.95
2023-05-21T11:10:35.691Z,2.80
2023-05-21T11:13:16.828Z,3.00
2023-05-21T11:16:01.447Z,2.63
2023-05-21T11:18:38.035Z,2.95
2023-05-21T11:23:52.470Z,2.92
2023-05-21T11:26:27.187Z,4.00
2023-05-21T11:29:03.467Z,2.50
2023-05-21T11:31:38.409Z,3.13
2023-05-21T11:34:19.143Z,3.05
2023-05-21T11:36:50.011Z,3.03
2023-05-21T11:39:22.313Z,2.65
2023-05-21T11:42:03.117Z,2.88
2023-05-21T11:44:44.468Z,2.67
2023-05-21T11:47:15.066Z,2.65
2023-05-21T11:49:42.794Z,2.33
2023-05-21T11:52:11.825Z,2.63
2023-05-21T11:54:48.649Z,4.60
2023-05-21T11:57:17.396Z,2.80
2023-05-21T11:59:51.348Z,2.85
2023-05-21T12:02:22.718Z,2.60
2023-05-21T12:04:51.591Z,2.63
2023-05-21T12:07:20.304Z,4.32
2023-05-21T12:09:51.993Z,2.50
2023-05-21T12:12:25.210Z,2.50
2023-05-21T12:14:55.337Z,2.63
2023-05-21T12:17:24.312Z,3.03
2023-05-21T12:19:53.692Z,2.70
2023-05-21T12:22:21.451Z,2.53
2023-05-21T12:24:48.965Z,2.92
2023-05-21T12:27:16.908Z,2.53
2023-05-21T12:29:46.673Z,2.65
2023-05-21T12:32:16.234Z,2.55
2023-05-21T12:34:44.673Z,2.60
2023-05-21T12:37:27.778Z,2.63
2023-05-21T12:39:57.924Z,2.50
2023-05-21T12:42:27.353Z,2.63
2023-05-21T12:44:54.910Z,2.30
2023-05-21T12:47:26.684Z,2.35
2023-05-21T12:49:58.083Z,2.20
2023-05-21T12:52:25.821Z,2.53
2023-05-21T12:54:56.347Z,2.40
2023-05-21T12:57:34.778Z,2.70
2023-05-21T13:00:04.446Z,2.13
2023-05-21T13:02:38.806Z,2.67
2023-05-21T13:05:08.524Z,3.10
2023-05-21T13:07:39.607Z,3.10
2023-05-21T13:10:07.759Z,3.50
2023-05-21T13:12:35.838Z,3.08
2023-05-21T13:15:05.833Z,2.90
2023-05-21T13:17:33.012Z,2.50
2023-05-21T13:20:18.236Z,2.67
2023-05-21T13:22:53.089Z,2.60
2023-05-21T13:25:24.641Z,3.08
2023-05-21T13:27:53.309Z,2.42
2023-05-21T13:30:21.924Z,3.85
2023-05-21T13:32:49.353Z,2.75
2023-05-21T13:35:17.287Z,2.72
2023-05-21T13:37:45.232Z,3.17
2023-05-21T13:40:17.383Z,2.30
2023-05-21T13:42:46.854Z,2.20
2023-05-21T13:45:16.493Z,2.70
2023-05-21T13:47:44.745Z,2.30
2023-05-21T13:50:13.036Z,2.70
2023-05-21T13:52:40.504Z,2.65
2023-05-21T13:55:08.389Z,2.92
2023-05-21T13:57:35.522Z,2.75
2023-05-21T14:00:04.720Z,2.38
2023-05-21T14:02:35.083Z,5.22
2023-05-21T14:05:02.651Z,2.95
2023-05-21T14:07:29.758Z,2.50
2023-05-21T14:09:57.448Z,2.38
2023-05-21T14:12:24.485Z,2.42
2023-05-21T14:14:52.014Z,2.60
2023-05-21T14:17:19.184Z,2.22
2023-05-21T14:19:48.056Z,2.38
2023-05-21T14:22:15.168Z,2.50
2023-05-21T14:24:42.885Z,2.40
2023-05-21T14:27:12.594Z,2.33
2023-05-21T14:29:41.337Z,2.35
2023-05-21T14:32:08.485Z,2.97
2023-05-21T14:34:35.872Z,2.50
2023-05-21T14:37:03.209Z,2.50
2023-05-21T14:39:31.110Z,2.28
2023-05-21T14:41:58.205Z,2.50
2023-05-21T14:44:25.541Z,2.80
2023-05-21T14:46:52.738Z,2.45
2023-05-21T14:49:20.165Z,2.72
2023-05-21T14:51:47.679Z,2.53
2023-05-21T14:54:15.316Z,2.80
2023-05-21T14:56:42.406Z,2.97
2023-05-21T14:59:11.424Z,2.50
2023-05-21T15:01:39.405Z,2.30
2023-05-21T15:04:07.895Z,2.35
2023-05-21T15:06:35.320Z,2.88
2023-05-21T15:09:02.889Z,2.60
2023-05-21T15:11:29.967Z,2.50
2023-05-21T15:13:57.559Z,2.50
2023-05-21T15:16:24.710Z,2.60
2023-05-21T15:18:52.115Z,2.60
2023-05-21T15:21:19.845Z,2.50
2023-05-21T15:23:47.294Z,2.63
2023-05-21T15:26:14.326Z,2.60
2023-05-21T15:28:41.839Z,2.38
2023-05-21T15:31:09.028Z,2.72
2023-05-21T15:33:37.015Z,2.55
2023-05-21T15:36:04.266Z,2.40
2023-05-21T15:38:32.807Z,2.67
2023-05-21T15:41:00.014Z,2.78
2023-05-21T15:43:27.351Z,2.58
2023-05-21T15:45:54.400Z,2.30
2023-05-21T15:48:23.061Z,2.42
2023-05-21T15:50:50.293Z,2.47
2023-05-21T15:53:17.653Z,2.78
2023-05-21T15:55:44.894Z,2.65
2023-05-21T15:58:12.262Z,2.53
2023-05-21T16:00:39.559Z,2.70
2023-05-21T16:03:07.119Z,2.70
2023-05-21T16:05:34.619Z,2.60
2023-05-21T16:08:02.152Z,2.83
2023-05-21T16:10:29.300Z,2.92
2023-05-21T16:12:56.929Z,3.15
2023-05-21T16:15:24.027Z,3.85
2023-05-21T16:17:51.471Z,2.95
2023-05-21T16:20:18.864Z,3.05
2023-05-21T16:22:46.574Z,2.50
2023-05-21T16:25:13.640Z,2.35
2023-05-21T16:27:41.100Z,2.90
2023-05-21T16:30:08.693Z,2.70
2023-05-21T16:32:36.223Z,3.15
2023-05-21T16:35:03.749Z,3.22
2023-05-21T16:37:31.124Z,3.20
2023-05-21T16:39:58.195Z,2.75
2023-05-21T16:42:25.642Z,2.63
2023-05-21T16:44:52.732Z,2.78
2023-05-21T16:47:20.207Z,2.72
2023-05-21T16:49:47.321Z,4.18
2023-05-21T16:52:14.761Z,3.30
2023-05-21T16:54:44.061Z,3.05
2023-05-21T16:57:13.106Z,2.42
2023-05-21T16:59:40.173Z,3.10
2023-05-21T17:02:16.558Z,3.13
2023-05-21T17:05:04.920Z,2.88
2023-05-21T17:07:32.334Z,3.03
2023-05-21T17:09:59.358Z,2.75
2023-05-21T17:12:26.750Z,2.90
2023-05-21T17:14:54.013Z,2.53
2023-05-21T17:17:21.379Z,3.50
2023-05-21T17:19:48.405Z,3.40
2023-05-21T17:22:15.750Z,3.60
2023-05-21T17:24:43.001Z,4.20
2023-05-21T17:27:10.989Z,3.70
2023-05-21T17:29:38.293Z,4.32
2023-05-21T17:32:06.257Z,3.90
2023-05-21T17:34:33.374Z,3.92
2023-05-21T17:37:00.723Z,3.80
2023-05-21T17:39:27.840Z,4.00
2023-05-21T17:41:56.373Z,4.38
2023-05-21T17:44:23.585Z,3.00
2023-05-21T17:46:52.045Z,3.55
2023-05-21T17:49:19.408Z,3.67
2023-05-21T17:51:47.955Z,2.90
2023-05-21T17:54:15.194Z,3.50
2023-05-21T17:56:44.211Z,3.88
2023-05-21T17:59:14.215Z,3.50
2023-05-21T18:01:41.732Z,3.70
2023-05-21T18:04:10.874Z,3.35
2023-05-21T18:06:38.981Z,3.30
2023-05-21T18:09:07.996Z,3.90
2023-05-21T18:11:35.546Z,3.80
2023-05-21T18:14:04.023Z,4.15
2023-05-21T18:16:31.733Z,3.28
2023-05-21T18:19:02.044Z,3.50
2023-05-21T18:21:29.662Z,3.13
2023-05-21T18:23:56.751Z,3.75
2023-05-21T18:26:25.112Z,4.07
2023-05-21T18:28:52.152Z,3.70
2023-05-21T18:31:20.265Z,4.03
2023-05-21T18:33:47.433Z,3.90
2023-05-21T18:36:14.870Z,3.97
2023-05-21T18:38:41.897Z,3.83
2023-05-21T18:41:09.480Z,4.00
2023-05-21T18:43:36.988Z,3.80
2023-05-21T18:46:04.676Z,3.65
2023-05-21T18:48:31.840Z,3.30
2023-05-21T18:50:59.229Z,3.40
2023-05-21T18:53:26.313Z,3.95
2023-05-21T18:55:53.652Z,3.88
2023-05-21T18:58:20.952Z,3.75
2023-05-21T19:00:48.277Z,3.88
2023-05-21T19:03:16.265Z,3.30
2023-05-21T19:05:43.626Z,4.07
2023-05-21T19:08:10.974Z,3.70
2023-05-21T19:10:39.349Z,3.80
2023-05-21T19:13:06.703Z,4.43
2023-05-21T19:15:34.364Z,4.05
2023-05-21T19:18:03.531Z,3.63
2023-05-21T19:20:31.132Z,3.92
2023-05-21T19:22:58.494Z,4.10
2023-05-21T19:25:26.007Z,4.78
2023-05-21T19:27:53.176Z,4.20
2023-05-21T19:30:20.683Z,4.43
2023-05-21T19:32:48.097Z,4.05
2023-05-21T19:35:16.544Z,4.50
2023-05-21T19:37:43.786Z,4.75
2023-05-21T19:40:11.559Z,4.32
2023-05-21T19:42:39.889Z,5.15
2023-05-21T19:45:09.674Z,6.50
2023-05-21T19:47:36.938Z,5.40
2023-05-21T19:50:04.804Z,5.82
2023-05-21T19:52:32.053Z,5.93
2023-05-21T19:55:04.698Z,4.90
2023-05-21T19:57:34.890Z,5.70
2023-05-21T20:00:02.398Z,5.07
2023-05-21T20:02:40.765Z,5.18
2023-05-21T20:05:09.313Z,5.32
2023-05-21T20:07:36.376Z,5.80
2023-05-21T20:10:04.317Z,5.70
2023-05-21T20:12:31.410Z,5.13
2023-05-21T20:15:00.202Z,5.60
2023-05-21T20:17:28.731Z,5.75
2023-05-21T20:19:57.399Z,6.03
2023-05-21T20:22:24.479Z,6.07
2023-05-21T20:24:51.876Z,6.03
2023-05-21T20:27:19.472Z,5.70
2023-05-21T20:29:47.165Z,5.60
2023-05-21T20:32:14.209Z,5.57
2023-05-21T20:34:54.223Z,5.07
2023-05-21T20:37:28.755Z,5.93
2023-05-21T20:39:58.089Z,5.85
2023-05-21T20:42:28.481Z,5.40
2023-05-21T20:44:58.871Z,6.03
2023-05-21T20:47:29.949Z,6.50
2023-05-21T20:50:02.800Z,6.85
2023-05-21T20:52:29.950Z,8.00
2023-05-21T20:55:01.065Z,6.75
2023-05-21T20:57:28.697Z,7.35
2023-05-21T20:59:56.279Z,6.80
2023-05-21T21:02:23.606Z,7.47
2023-05-21T21:04:51.041Z,7.93
2023-05-21T21:07:18.640Z,7.93
2023-05-21T21:09:47.073Z,8.85
2023-05-21T21:12:25.437Z,7.47
2023-05-21T21:14:54.491Z,7.50
2023-05-21T21:17:21.718Z,6.85
2023-05-21T21:19:49.141Z,7.18
2023-05-21T21:22:16.697Z,7.68
2023-05-21T21:24:44.526Z,8.00
2023-05-21T21:27:11.642Z,7.88
2023-05-21T21:29:39.071Z,7.63
2023-05-21T21:32:06.687Z,7.85
2023-05-21T21:34:34.058Z,7.88
2023-05-21T21:37:01.203Z,8.38
2023-05-21T21:39:28.590Z,8.75
2023-05-21T21:41:55.779Z,7.43
2023-05-21T21:44:23.149Z,7.90
2023-05-21T21:46:50.418Z,9.30
2023-05-21T21:49:17.802Z,10.00
2023-05-21T21:51:45.332Z,8.98
2023-05-21T21:54:12.790Z,9.80
2023-05-21T21:56:39.977Z,9.18
2023-05-21T21:59:07.417Z,8.40
2023-05-21T22:01:35.749Z,8.70
2023-05-21T22:04:03.218Z,9.20
2023-05-21T22:06:31.341Z,9.25
2023-05-21T22:08:59.101Z,9.40
2023-05-21T22:11:28.454Z,9.13
2023-05-21T22:13:56.152Z,9.18
2023-05-21T22:16:24.929Z,8.93
2023-05-21T22:18:54.244Z,9.73
2023-05-21T22:21:21.760Z,7.75
2023-05-21T22:23:49.088Z,9.80
2023-05-21T22:26:16.196Z,9.50
2023-05-21T22:28:43.661Z,8.75
2023-05-21T22:31:11.088Z,8.57
2023-05-21T22:33:39.302Z,7.75
2023-05-21T22:36:06.666Z,7.60
2023-05-21T22:38:34.349Z,7.38
2023-05-21T22:41:01.506Z,8.18
2023-05-21T22:43:29.043Z,8.52
2023-05-21T22:45:56.109Z,8.50
2023-05-21T22:48:23.544Z,8.90
2023-05-21T22:50:53.321Z,8.35
2023-05-21T22:53:20.986Z,8.63
2023-05-21T22:55:48.074Z,8.50
2023-05-21T22:58:15.585Z,8.18
2023-05-21T23:00:43.116Z,9.05
2023-05-21T23:03:11.420Z,8.13
2023-05-21T23:05:38.649Z,8.70
2023-05-21T23:08:06.120Z,8.55
2023-05-21T23:10:35.600Z,8.38
2023-05-21T23:13:03.157Z,8.68
2023-05-21T23:15:30.585Z,8.52
2023-05-21T23:17:58.096Z,9.20
2023-05-21T23:20:25.222Z,8.45
2023-05-21T23:22:52.689Z,8.30
2023-05-21T23:25:19.703Z,8.80
2023-05-21T23:27:47.121Z,7.90
2023-05-21T23:30:14.368Z,7.90
2023-05-21T23:32:41.772Z,8.18
2023-05-21T23:35:09.845Z,8.35
2023-05-21T23:37:37.298Z,8.85
2023-05-21T23:40:05.307Z,8.27
2023-05-21T23:42:32.664Z,8.73
2023-05-21T23:44:59.754Z,8.75
2023-05-21T23:47:27.118Z,8.73
2023-05-21T23:49:54.206Z,8.52
2023-05-21T23:52:23.490Z,9.27
2023-05-21T23:54:50.549Z,8.80
2023-05-21T23:57:18.145Z,9.13
2023-05-21T23:59:45.238Z,9.00
